sensor_id;sensor_type;location;lat;lon;timestamp;P1;durP1;ratioP1;P2;durP2;ratioP2
12846;SDS011;6492;48.128;8.320;2023-07-20T00:08:03;5.43;;;3.30;;
12846;SDS011;6492;48.128;8.320;2023-07-20T00:12:09;4.37;;;3.60;;
12846;SDS011;6492;48.128;8.320;2023-07-20T00:16:13;4.53;;;3.80;;
12846;SDS011;6492;48.128;8.320;2023-07-20T00:20:28;4.97;;;3.70;;
12846;SDS011;6492;48.128;8.320;2023-07-20T00:24:30;3.67;;;3.27;;
12846;SDS011;6492;48.128;8.320;2023-07-20T00:28:35;5.37;;;3.50;;
12846;SDS011;6492;48.128;8.320;2023-07-20T00:32:55;5.97;;;3.10;;
12846;SDS011;6492;48.128;8.320;2023-07-20T00:37:03;4.60;;;3.60;;
12846;SDS011;6492;48.128;8.320;2023-07-20T00:41:09;4.73;;;3.50;;
12846;SDS011;6492;48.128;8.320;2023-07-20T00:45:37;4.80;;;3.23;;
12846;SDS011;6492;48.128;8.320;2023-07-20T00:49:52;3.73;;;3.30;;
12846;SDS011;6492;48.128;8.320;2023-07-20T00:54:12;3.63;;;3.20;;
12846;SDS011;6492;48.128;8.320;2023-07-20T00:58:36;5.87;;;3.53;;
12846;SDS011;6492;48.128;8.320;2023-07-20T01:03:18;3.30;;;3.00;;
12846;SDS011;6492;48.128;8.320;2023-07-20T01:07:30;3.90;;;3.07;;
12846;SDS011;6492;48.128;8.320;2023-07-20T01:16:12;4.03;;;3.30;;
12846;SDS011;6492;48.128;8.320;2023-07-20T01:20:27;6.17;;;3.10;;
12846;SDS011;6492;48.128;8.320;2023-07-20T01:34:06;4.67;;;3.60;;
12846;SDS011;6492;48.128;8.320;2023-07-20T01:38:27;4.80;;;3.30;;
12846;SDS011;6492;48.128;8.320;2023-07-20T01:42:39;3.87;;;3.30;;
12846;SDS011;6492;48.128;8.320;2023-07-20T01:47:04;4.17;;;2.90;;
12846;SDS011;6492;48.128;8.320;2023-07-20T01:55:39;3.07;;;2.77;;
12846;SDS011;6492;48.128;8.320;2023-07-20T01:59:45;5.33;;;3.50;;
12846;SDS011;6492;48.128;8.320;2023-07-20T02:03:59;5.00;;;3.63;;
12846;SDS011;6492;48.128;8.320;2023-07-20T02:08:11;3.33;;;3.00;;
12846;SDS011;6492;48.128;8.320;2023-07-20T02:12:15;3.80;;;3.10;;
12846;SDS011;6492;48.128;8.320;2023-07-20T02:16:55;4.23;;;3.20;;
12846;SDS011;6492;48.128;8.320;2023-07-20T02:21:04;4.80;;;3.30;;
12846;SDS011;6492;48.128;8.320;2023-07-20T02:29:43;3.50;;;3.10;;
12846;SDS011;6492;48.128;8.320;2023-07-20T02:33:47;3.40;;;3.10;;
12846;SDS011;6492;48.128;8.320;2023-07-20T02:37:55;4.37;;;3.00;;
12846;SDS011;6492;48.128;8.320;2023-07-20T02:46:42;4.37;;;3.53;;
12846;SDS011;6492;48.128;8.320;2023-07-20T02:51:00;4.20;;;3.27;;
12846;SDS011;6492;48.128;8.320;2023-07-20T02:55:03;4.47;;;3.10;;
12846;SDS011;6492;48.128;8.320;2023-07-20T02:59:10;5.17;;;3.20;;
12846;SDS011;6492;48.128;8.320;2023-07-20T03:03:16;5.30;;;3.57;;
12846;SDS011;6492;48.128;8.320;2023-07-20T03:07:18;4.40;;;3.20;;
12846;SDS011;6492;48.128;8.320;2023-07-20T03:11:22;5.73;;;3.43;;
12846;SDS011;6492;48.128;8.320;2023-07-20T03:19:57;3.90;;;3.27;;
12846;SDS011;6492;48.128;8.320;2023-07-20T03:24:03;4.50;;;3.50;;
12846;SDS011;6492;48.128;8.320;2023-07-20T03:28:32;6.33;;;4.07;;
12846;SDS011;6492;48.128;8.320;2023-07-20T03:32:36;5.63;;;3.83;;
12846;SDS011;6492;48.128;8.320;2023-07-20T03:36:47;3.43;;;3.10;;
12846;SDS011;6492;48.128;8.320;2023-07-20T03:40:50;3.80;;;3.20;;
12846;SDS011;6492;48.128;8.320;2023-07-20T03:44:53;5.33;;;3.37;;
12846;SDS011;6492;48.128;8.320;2023-07-20T03:48:58;3.53;;;3.13;;
12846;SDS011;6492;48.128;8.320;2023-07-20T03:53:04;3.53;;;2.83;;
12846;SDS011;6492;48.128;8.320;2023-07-20T03:57:08;3.87;;;3.30;;
12846;SDS011;6492;48.128;8.320;2023-07-20T04:01:12;6.80;;;3.40;;
12846;SDS011;6492;48.128;8.320;2023-07-20T04:09:40;4.03;;;3.50;;
12846;SDS011;6492;48.128;8.320;2023-07-20T04:13:50;5.27;;;3.27;;
12846;SDS011;6492;48.128;8.320;2023-07-20T04:17:56;3.63;;;3.23;;
12846;SDS011;6492;48.128;8.320;2023-07-20T04:22:04;3.90;;;2.93;;
12846;SDS011;6492;48.128;8.320;2023-07-20T04:26:13;3.70;;;3.30;;
12846;SDS011;6492;48.128;8.320;2023-07-20T04:34:51;3.93;;;3.43;;
12846;SDS011;6492;48.128;8.320;2023-07-20T04:39:12;4.27;;;3.43;;
12846;SDS011;6492;48.128;8.320;2023-07-20T04:43:21;4.43;;;3.47;;
12846;SDS011;6492;48.128;8.320;2023-07-20T04:47:26;4.37;;;3.70;;
12846;SDS011;6492;48.128;8.320;2023-07-20T04:51:32;3.90;;;3.60;;
12846;SDS011;6492;48.128;8.320;2023-07-20T04:55:38;5.30;;;3.50;;
12846;SDS011;6492;48.128;8.320;2023-07-20T04:59:51;4.47;;;3.50;;
12846;SDS011;6492;48.128;8.320;2023-07-20T05:04:09;4.93;;;3.63;;
12846;SDS011;6492;48.128;8.320;2023-07-20T05:08:15;4.87;;;3.50;;
12846;SDS011;6492;48.128;8.320;2023-07-20T05:16:43;4.80;;;3.57;;
12846;SDS011;6492;48.128;8.320;2023-07-20T05:20:46;4.10;;;3.47;;
12846;SDS011;6492;48.128;8.320;2023-07-20T05:24:50;6.60;;;3.47;;
12846;SDS011;6492;48.128;8.320;2023-07-20T05:28:54;5.40;;;3.70;;
12846;SDS011;6492;48.128;8.320;2023-07-20T05:32:56;3.77;;;3.40;;
12846;SDS011;6492;48.128;8.320;2023-07-20T05:37:07;4.10;;;3.50;;
12846;SDS011;6492;48.128;8.320;2023-07-20T05:45:48;5.00;;;3.03;;
12846;SDS011;6492;48.128;8.320;2023-07-20T05:49:50;4.30;;;3.50;;
12846;SDS011;6492;48.128;8.320;2023-07-20T05:53:51;7.00;;;3.63;;
12846;SDS011;6492;48.128;8.320;2023-07-20T05:57:53;3.83;;;2.77;;
12846;SDS011;6492;48.128;8.320;2023-07-20T06:01:57;3.33;;;3.03;;
12846;SDS011;6492;48.128;8.320;2023-07-20T06:05:59;5.00;;;3.17;;
12846;SDS011;6492;48.128;8.320;2023-07-20T06:10:01;5.60;;;3.30;;
12846;SDS011;6492;48.128;8.320;2023-07-20T06:14:03;5.43;;;3.00;;
12846;SDS011;6492;48.128;8.320;2023-07-20T06:18:06;3.60;;;3.08;;
12846;SDS011;6492;48.128;8.320;2023-07-20T06:22:08;9.65;;;3.40;;
12846;SDS011;6492;48.128;8.320;2023-07-20T06:26:10;4.10;;;3.03;;
12846;SDS011;6492;48.128;8.320;2023-07-20T06:30:11;4.75;;;3.20;;
12846;SDS011;6492;48.128;8.320;2023-07-20T06:34:15;4.37;;;3.13;;
12846;SDS011;6492;48.128;8.320;2023-07-20T06:38:16;3.75;;;3.45;;
12846;SDS011;6492;48.128;8.320;2023-07-20T06:42:18;3.25;;;2.88;;
12846;SDS011;6492;48.128;8.320;2023-07-20T06:46:20;3.78;;;3.10;;
12846;SDS011;6492;48.128;8.320;2023-07-20T06:50:23;4.70;;;3.13;;
12846;SDS011;6492;48.128;8.320;2023-07-20T06:54:25;4.32;;;2.83;;
12846;SDS011;6492;48.128;8.320;2023-07-20T06:58:27;3.40;;;2.90;;
12846;SDS011;6492;48.128;8.320;2023-07-20T07:02:28;3.13;;;2.83;;
12846;SDS011;6492;48.128;8.320;2023-07-20T07:06:31;3.30;;;2.97;;
12846;SDS011;6492;48.128;8.320;2023-07-20T07:10:34;5.35;;;3.03;;
12846;SDS011;6492;48.128;8.320;2023-07-20T07:14:37;3.50;;;2.90;;
12846;SDS011;6492;48.128;8.320;2023-07-20T07:18:39;4.82;;;3.20;;
12846;SDS011;6492;48.128;8.320;2023-07-20T07:22:42;4.15;;;3.08;;
12846;SDS011;6492;48.128;8.320;2023-07-20T07:26:44;3.50;;;3.15;;
12846;SDS011;6492;48.128;8.320;2023-07-20T07:30:45;3.35;;;2.40;;
12846;SDS011;6492;48.128;8.320;2023-07-20T07:34:47;3.15;;;2.38;;
12846;SDS011;6492;48.128;8.320;2023-07-20T07:38:50;4.28;;;2.90;;
12846;SDS011;6492;48.128;8.320;2023-07-20T07:42:52;2.85;;;2.50;;
12846;SDS011;6492;48.128;8.320;2023-07-20T07:47:04;3.10;;;2.70;;
12846;SDS011;6492;48.128;8.320;2023-07-20T07:51:06;3.63;;;2.72;;
12846;SDS011;6492;48.128;8.320;2023-07-20T07:55:09;4.40;;;2.70;;
12846;SDS011;6492;48.128;8.320;2023-07-20T07:59:11;4.18;;;2.55;;
12846;SDS011;6492;48.128;8.320;2023-07-20T08:03:12;2.85;;;2.58;;
12846;SDS011;6492;48.128;8.320;2023-07-20T08:07:14;4.03;;;2.53;;
12846;SDS011;6492;48.128;8.320;2023-07-20T08:11:17;3.72;;;2.58;;
12846;SDS011;6492;48.128;8.320;2023-07-20T08:15:19;3.28;;;2.40;;
12846;SDS011;6492;48.128;8.320;2023-07-20T08:19:21;6.47;;;2.60;;
12846;SDS011;6492;48.128;8.320;2023-07-20T08:23:23;4.00;;;2.40;;
12846;SDS011;6492;48.128;8.320;2023-07-20T08:27:28;4.07;;;2.60;;
12846;SDS011;6492;48.128;8.320;2023-07-20T08:31:30;3.45;;;2.58;;
12846;SDS011;6492;48.128;8.320;2023-07-20T08:35:32;3.10;;;2.38;;
12846;SDS011;6492;48.128;8.320;2023-07-20T08:39:34;4.15;;;2.45;;
12846;SDS011;6492;48.128;8.320;2023-07-20T08:43:37;2.83;;;2.22;;
12846;SDS011;6492;48.128;8.320;2023-07-20T08:47:43;2.88;;;2.30;;
12846;SDS011;6492;48.128;8.320;2023-07-20T08:51:48;2.50;;;2.30;;
12846;SDS011;6492;48.128;8.320;2023-07-20T08:55:51;3.25;;;2.30;;
12846;SDS011;6492;48.128;8.320;2023-07-20T08:59:54;4.15;;;2.50;;
12846;SDS011;6492;48.128;8.320;2023-07-20T09:03:57;3.38;;;2.30;;
12846;SDS011;6492;48.128;8.320;2023-07-20T09:07:59;4.00;;;2.85;;
12846;SDS011;6492;48.128;8.320;2023-07-20T09:12:01;3.42;;;2.42;;
12846;SDS011;6492;48.128;8.320;2023-07-20T09:16:04;2.47;;;2.22;;
12846;SDS011;6492;48.128;8.320;2023-07-20T09:20:06;3.10;;;2.20;;
12846;SDS011;6492;48.128;8.320;2023-07-20T09:24:10;3.20;;;2.33;;
12846;SDS011;6492;48.128;8.320;2023-07-20T09:28:13;3.95;;;2.30;;
12846;SDS011;6492;48.128;8.320;2023-07-20T09:32:18;5.22;;;2.45;;
12846;SDS011;6492;48.128;8.320;2023-07-20T09:36:21;2.50;;;2.30;;
12846;SDS011;6492;48.128;8.320;2023-07-20T09:40:23;3.30;;;2.40;;
12846;SDS011;6492;48.128;8.320;2023-07-20T09:44:27;4.80;;;2.22;;
12846;SDS011;6492;48.128;8.320;2023-07-20T09:48:38;3.50;;;2.50;;
12846;SDS011;6492;48.128;8.320;2023-07-20T09:52:40;3.47;;;2.15;;
12846;SDS011;6492;48.128;8.320;2023-07-20T09:56:44;4.32;;;2.40;;
12846;SDS011;6492;48.128;8.320;2023-07-20T10:00:48;3.50;;;2.55;;
12846;SDS011;6492;48.128;8.320;2023-07-20T10:04:54;5.40;;;2.47;;
12846;SDS011;6492;48.128;8.320;2023-07-20T10:08:59;2.83;;;2.45;;
12846;SDS011;6492;48.128;8.320;2023-07-20T10:13:03;3.80;;;2.42;;
12846;SDS011;6492;48.128;8.320;2023-07-20T10:17:07;3.70;;;2.40;;
12846;SDS011;6492;48.128;8.320;2023-07-20T10:21:13;2.45;;;2.17;;
12846;SDS011;6492;48.128;8.320;2023-07-20T10:25:18;2.88;;;2.38;;
12846;SDS011;6492;48.128;8.320;2023-07-20T10:29:21;3.67;;;2.60;;
12846;SDS011;6492;48.128;8.320;2023-07-20T10:33:24;3.22;;;2.90;;
12846;SDS011;6492;48.128;8.320;2023-07-20T10:41:49;3.08;;;2.60;;
12846;SDS011;6492;48.128;8.320;2023-07-20T10:45:51;2.55;;;2.35;;
12846;SDS011;6492;48.128;8.320;2023-07-20T10:50:00;2.22;;;2.03;;
12846;SDS011;6492;48.128;8.320;2023-07-20T10:54:07;3.17;;;2.00;;
12846;SDS011;6492;48.128;8.320;2023-07-20T10:58:24;3.13;;;2.35;;
12846;SDS011;6492;48.128;8.320;2023-07-20T11:02:41;2.50;;;2.30;;
12846;SDS011;6492;48.128;8.320;2023-07-20T11:06:44;3.08;;;2.40;;
12846;SDS011;6492;48.128;8.320;2023-07-20T11:10:47;2.42;;;2.22;;
12846;SDS011;6492;48.128;8.320;2023-07-20T11:15:27;3.35;;;2.20;;
12846;SDS011;6492;48.128;8.320;2023-07-20T11:20:01;2.67;;;2.25;;
12846;SDS011;6492;48.128;8.320;2023-07-20T11:24:04;3.17;;;2.30;;
12846;SDS011;6492;48.128;8.320;2023-07-20T11:28:08;3.67;;;2.30;;
12846;SDS011;6492;48.128;8.320;2023-07-20T11:32:11;2.53;;;2.10;;
12846;SDS011;6492;48.128;8.320;2023-07-20T11:36:12;2.60;;;2.40;;
12846;SDS011;6492;48.128;8.320;2023-07-20T11:40:14;2.97;;;2.40;;
12846;SDS011;6492;48.128;8.320;2023-07-20T11:44:26;2.45;;;2.25;;
12846;SDS011;6492;48.128;8.320;2023-07-20T11:48:43;2.85;;;2.30;;
12846;SDS011;6492;48.128;8.320;2023-07-20T11:52:47;2.83;;;2.15;;
12846;SDS011;6492;48.128;8.320;2023-07-20T11:56:53;2.35;;;2.03;;
12846;SDS011;6492;48.128;8.320;2023-07-20T12:00:56;4.07;;;2.60;;
12846;SDS011;6492;48.128;8.320;2023-07-20T12:04:58;2.58;;;2.38;;
12846;SDS011;6492;48.128;8.320;2023-07-20T12:09:00;2.55;;;2.30;;
12846;SDS011;6492;48.128;8.320;2023-07-20T12:13:02;2.72;;;2.50;;
12846;SDS011;6492;48.128;8.320;2023-07-20T12:17:14;3.97;;;2.72;;
12846;SDS011;6492;48.128;8.320;2023-07-20T12:21:16;3.47;;;2.30;;
12846;SDS011;6492;48.128;8.320;2023-07-20T12:25:20;2.42;;;2.20;;
12846;SDS011;6492;48.128;8.320;2023-07-20T12:29:22;4.35;;;2.42;;
12846;SDS011;6492;48.128;8.320;2023-07-20T12:33:25;2.83;;;2.40;;
12846;SDS011;6492;48.128;8.320;2023-07-20T12:37:27;3.53;;;2.70;;
12846;SDS011;6492;48.128;8.320;2023-07-20T12:41:43;3.38;;;2.60;;
12846;SDS011;6492;48.128;8.320;2023-07-20T12:45:46;4.03;;;2.40;;
12846;SDS011;6492;48.128;8.320;2023-07-20T12:49:49;2.50;;;2.30;;
12846;SDS011;6492;48.128;8.320;2023-07-20T12:53:50;2.40;;;2.20;;
12846;SDS011;6492;48.128;8.320;2023-07-20T12:57:52;3.05;;;2.63;;
12846;SDS011;6492;48.128;8.320;2023-07-20T13:01:54;2.88;;;2.17;;
12846;SDS011;6492;48.128;8.320;2023-07-20T13:05:57;4.22;;;2.70;;
12846;SDS011;6492;48.128;8.320;2023-07-20T13:09:59;3.85;;;2.35;;
12846;SDS011;6492;48.128;8.320;2023-07-20T13:14:01;2.70;;;2.50;;
12846;SDS011;6492;48.128;8.320;2023-07-20T13:18:03;2.47;;;2.28;;
12846;SDS011;6492;48.128;8.320;2023-07-20T13:22:07;2.40;;;2.20;;
12846;SDS011;6492;48.128;8.320;2023-07-20T13:26:08;2.63;;;2.42;;
12846;SDS011;6492;48.128;8.320;2023-07-20T13:30:10;2.50;;;2.30;;
12846;SDS011;6492;48.128;8.320;2023-07-20T13:34:16;2.97;;;2.33;;
12846;SDS011;6492;48.128;8.320;2023-07-20T13:38:19;2.47;;;2.28;;
12846;SDS011;6492;48.128;8.320;2023-07-20T13:42:22;3.20;;;2.50;;
12846;SDS011;6492;48.128;8.320;2023-07-20T13:46:24;3.33;;;2.22;;
12846;SDS011;6492;48.128;8.320;2023-07-20T13:50:26;3.00;;;2.60;;
12846;SDS011;6492;48.128;8.320;2023-07-20T13:54:29;2.40;;;2.20;;
12846;SDS011;6492;48.128;8.320;2023-07-20T13:58:32;3.35;;;2.50;;
12846;SDS011;6492;48.128;8.320;2023-07-20T14:02:34;3.00;;;2.30;;
12846;SDS011;6492;48.128;8.320;2023-07-20T14:06:36;2.70;;;2.50;;
12846;SDS011;6492;48.128;8.320;2023-07-20T14:10:39;4.05;;;2.80;;
12846;SDS011;6492;48.128;8.320;2023-07-20T14:14:41;2.45;;;2.25;;
12846;SDS011;6492;48.128;8.320;2023-07-20T14:18:43;3.95;;;2.70;;
12846;SDS011;6492;48.128;8.320;2023-07-20T14:22:47;2.55;;;2.30;;
12846;SDS011;6492;48.128;8.320;2023-07-20T14:26:50;2.83;;;2.33;;
12846;SDS011;6492;48.128;8.320;2023-07-20T14:30:52;3.20;;;2.30;;
12846;SDS011;6492;48.128;8.320;2023-07-20T14:34:54;2.60;;;2.30;;
12846;SDS011;6492;48.128;8.320;2023-07-20T14:38:55;3.40;;;2.60;;
12846;SDS011;6492;48.128;8.320;2023-07-20T14:42:59;2.60;;;2.40;;
12846;SDS011;6492;48.128;8.320;2023-07-20T14:47:02;2.00;;;1.90;;
12846;SDS011;6492;48.128;8.320;2023-07-20T14:51:04;4.32;;;2.42;;
12846;SDS011;6492;48.128;8.320;2023-07-20T14:55:06;2.55;;;2.30;;
12846;SDS011;6492;48.128;8.320;2023-07-20T14:59:09;2.40;;;2.20;;
12846;SDS011;6492;48.128;8.320;2023-07-20T15:03:11;2.40;;;2.20;;
12846;SDS011;6492;48.128;8.320;2023-07-20T15:07:13;2.50;;;2.30;;
12846;SDS011;6492;48.128;8.320;2023-07-20T15:11:14;2.75;;;2.10;;
12846;SDS011;6492;48.128;8.320;2023-07-20T15:15:18;3.10;;;2.10;;
12846;SDS011;6492;48.128;8.320;2023-07-20T15:19:19;3.30;;;2.55;;
12846;SDS011;6492;48.128;8.320;2023-07-20T15:23:22;2.58;;;2.38;;
12846;SDS011;6492;48.128;8.320;2023-07-20T15:27:23;2.80;;;2.33;;
12846;SDS011;6492;48.128;8.320;2023-07-20T15:31:27;2.50;;;2.10;;
12846;SDS011;6492;48.128;8.320;2023-07-20T15:39:44;3.25;;;2.50;;
12846;SDS011;6492;48.128;8.320;2023-07-20T15:43:49;3.28;;;2.33;;
12846;SDS011;6492;48.128;8.320;2023-07-20T15:47:54;2.42;;;2.20;;
12846;SDS011;6492;48.128;8.320;2023-07-20T15:51:55;2.55;;;2.35;;
12846;SDS011;6492;48.128;8.320;2023-07-20T15:55:57;2.72;;;2.50;;
12846;SDS011;6492;48.128;8.320;2023-07-20T15:59:59;2.47;;;2.28;;
12846;SDS011;6492;48.128;8.320;2023-07-20T16:04:11;3.67;;;2.20;;
12846;SDS011;6492;48.128;8.320;2023-07-20T16:08:14;2.65;;;2.42;;
12846;SDS011;6492;48.128;8.320;2023-07-20T16:12:16;4.13;;;2.63;;
12846;SDS011;6492;48.128;8.320;2023-07-20T16:16:18;3.85;;;2.33;;
12846;SDS011;6492;48.128;8.320;2023-07-20T16:20:21;3.03;;;2.20;;
12846;SDS011;6492;48.128;8.320;2023-07-20T16:24:22;2.10;;;1.90;;
12846;SDS011;6492;48.128;8.320;2023-07-20T16:28:24;2.65;;;2.45;;
12846;SDS011;6492;48.128;8.320;2023-07-20T16:32:26;2.83;;;2.35;;
12846;SDS011;6492;48.128;8.320;2023-07-20T16:36:30;2.55;;;2.30;;
12846;SDS011;6492;48.128;8.320;2023-07-20T16:40:35;2.30;;;2.10;;
12846;SDS011;6492;48.128;8.320;2023-07-20T16:44:37;2.90;;;2.50;;
12846;SDS011;6492;48.128;8.320;2023-07-20T16:48:40;2.50;;;2.30;;
12846;SDS011;6492;48.128;8.320;2023-07-20T16:52:43;2.55;;;2.35;;
12846;SDS011;6492;48.128;8.320;2023-07-20T16:56:55;3.67;;;2.80;;
12846;SDS011;6492;48.128;8.320;2023-07-20T17:05:22;2.53;;;2.30;;
12846;SDS011;6492;48.128;8.320;2023-07-20T17:09:25;2.55;;;2.35;;
12846;SDS011;6492;48.128;8.320;2023-07-20T17:13:27;2.42;;;2.22;;
12846;SDS011;6492;48.128;8.320;2023-07-20T17:17:29;2.85;;;2.65;;
12846;SDS011;6492;48.128;8.320;2023-07-20T17:21:31;3.38;;;2.40;;
12846;SDS011;6492;48.128;8.320;2023-07-20T17:25:34;3.30;;;2.35;;
12846;SDS011;6492;48.128;8.320;2023-07-20T17:29:36;3.13;;;2.30;;
12846;SDS011;6492;48.128;8.320;2023-07-20T17:33:37;2.75;;;2.42;;
12846;SDS011;6492;48.128;8.320;2023-07-20T17:37:43;2.45;;;2.20;;
12846;SDS011;6492;48.128;8.320;2023-07-20T17:41:46;3.28;;;2.53;;
12846;SDS011;6492;48.128;8.320;2023-07-20T17:45:50;2.83;;;2.50;;
12846;SDS011;6492;48.128;8.320;2023-07-20T17:49:52;3.10;;;2.47;;
12846;SDS011;6492;48.128;8.320;2023-07-20T17:53:54;3.67;;;2.35;;
12846;SDS011;6492;48.128;8.320;2023-07-20T17:57:57;2.50;;;2.30;;
12846;SDS011;6492;48.128;8.320;2023-07-20T18:01:59;2.53;;;2.33;;
12846;SDS011;6492;48.128;8.320;2023-07-20T18:06:04;2.38;;;2.17;;
12846;SDS011;6492;48.128;8.320;2023-07-20T18:10:07;2.63;;;2.25;;
12846;SDS011;6492;48.128;8.320;2023-07-20T18:14:11;2.78;;;2.35;;
12846;SDS011;6492;48.128;8.320;2023-07-20T18:18:14;2.60;;;2.40;;
12846;SDS011;6492;48.128;8.320;2023-07-20T18:22:21;3.20;;;2.28;;
12846;SDS011;6492;48.128;8.320;2023-07-20T18:26:25;2.38;;;2.15;;
12846;SDS011;6492;48.128;8.320;2023-07-20T18:30:45;3.78;;;2.45;;
12846;SDS011;6492;48.128;8.320;2023-07-20T18:34:56;4.47;;;2.47;;
12846;SDS011;6492;48.128;8.320;2023-07-20T18:38:58;4.38;;;2.60;;
12846;SDS011;6492;48.128;8.320;2023-07-20T18:43:11;2.13;;;2.03;;
12846;SDS011;6492;48.128;8.320;2023-07-20T18:47:15;2.10;;;1.98;;
12846;SDS011;6492;48.128;8.320;2023-07-20T18:51:17;2.92;;;2.20;;
12846;SDS011;6492;48.128;8.320;2023-07-20T18:55:24;7.00;;;2.38;;
12846;SDS011;6492;48.128;8.320;2023-07-20T18:59:36;1.92;;;1.83;;
12846;SDS011;6492;48.128;8.320;2023-07-20T19:08:09;5.40;;;2.13;;
12846;SDS011;6492;48.128;8.320;2023-07-20T19:16:16;2.63;;;2.20;;
12846;SDS011;6492;48.128;8.320;2023-07-20T19:20:19;1.92;;;1.83;;
12846;SDS011;6492;48.128;8.320;2023-07-20T19:24:20;2.72;;;2.17;;
12846;SDS011;6492;48.128;8.320;2023-07-20T19:28:22;2.83;;;2.00;;
12846;SDS011;6492;48.128;8.320;2023-07-20T19:32:24;2.30;;;2.10;;
12846;SDS011;6492;48.128;8.320;2023-07-20T19:36:27;2.25;;;2.00;;
12846;SDS011;6492;48.128;8.320;2023-07-20T19:40:31;2.53;;;2.08;;
12846;SDS011;6492;48.128;8.320;2023-07-20T19:59:27;2.10;;;1.90;;
12846;SDS011;6492;48.128;8.320;2023-07-20T20:16:28;2.77;;;2.17;;
12846;SDS011;6492;48.128;8.320;2023-07-20T20:20:30;2.30;;;2.10;;
12846;SDS011;6492;48.128;8.320;2023-07-20T20:24:33;2.17;;;1.90;;
12846;SDS011;6492;48.128;8.320;2023-07-20T20:28:36;2.20;;;2.00;;
12846;SDS011;6492;48.128;8.320;2023-07-20T20:32:45;2.27;;;1.97;;
12846;SDS011;6492;48.128;8.320;2023-07-20T20:36:47;2.60;;;2.20;;
12846;SDS011;6492;48.128;8.320;2023-07-20T20:40:49;2.90;;;2.13;;
12846;SDS011;6492;48.128;8.320;2023-07-20T20:44:52;3.83;;;2.60;;
12846;SDS011;6492;48.128;8.320;2023-07-20T20:48:56;2.77;;;2.10;;
12846;SDS011;6492;48.128;8.320;2023-07-20T20:52:58;2.80;;;2.40;;
12846;SDS011;6492;48.128;8.320;2023-07-20T20:57:00;2.57;;;2.37;;
12846;SDS011;6492;48.128;8.320;2023-07-20T21:01:02;2.70;;;1.90;;
12846;SDS011;6492;48.128;8.320;2023-07-20T21:05:06;2.80;;;2.30;;
12846;SDS011;6492;48.128;8.320;2023-07-20T21:09:23;4.60;;;2.07;;
12846;SDS011;6492;48.128;8.320;2023-07-20T21:13:25;2.10;;;1.90;;
12846;SDS011;6492;48.128;8.320;2023-07-20T21:17:27;3.20;;;1.80;;
12846;SDS011;6492;48.128;8.320;2023-07-20T21:21:31;2.83;;;2.33;;
12846;SDS011;6492;48.128;8.320;2023-07-20T21:25:33;3.07;;;2.17;;
12846;SDS011;6492;48.128;8.320;2023-07-20T21:29:35;2.40;;;2.20;;
12846;SDS011;6492;48.128;8.320;2023-07-20T21:33:36;3.00;;;2.20;;
12846;SDS011;6492;48.128;8.320;2023-07-20T21:37:40;3.13;;;1.90;;
12846;SDS011;6492;48.128;8.320;2023-07-20T21:41:42;2.20;;;1.90;;
12846;SDS011;6492;48.128;8.320;2023-07-20T21:45:44;2.70;;;2.33;;
12846;SDS011;6492;48.128;8.320;2023-07-20T21:49:46;3.13;;;2.30;;
12846;SDS011;6492;48.128;8.320;2023-07-20T21:53:49;2.37;;;2.10;;
12846;SDS011;6492;48.128;8.320;2023-07-20T21:57:51;1.97;;;1.77;;
12846;SDS011;6492;48.128;8.320;2023-07-20T22:01:53;2.33;;;2.13;;
12846;SDS011;6492;48.128;8.320;2023-07-20T22:05:55;2.27;;;1.80;;
12846;SDS011;6492;48.128;8.320;2023-07-20T22:09:58;2.20;;;2.00;;
12846;SDS011;6492;48.128;8.320;2023-07-20T22:14:00;1.80;;;1.70;;
12846;SDS011;6492;48.128;8.320;2023-07-20T22:18:02;2.30;;;1.90;;
12846;SDS011;6492;48.128;8.320;2023-07-20T22:22:04;3.07;;;2.63;;
12846;SDS011;6492;48.128;8.320;2023-07-20T22:26:08;2.73;;;2.30;;
12846;SDS011;6492;48.128;8.320;2023-07-20T22:30:10;3.83;;;2.60;;
12846;SDS011;6492;48.128;8.320;2023-07-20T22:34:14;2.60;;;2.40;;
12846;SDS011;6492;48.128;8.320;2023-07-20T22:38:16;2.57;;;2.30;;
12846;SDS011;6492;48.128;8.320;2023-07-20T22:42:19;2.47;;;2.27;;
12846;SDS011;6492;48.128;8.320;2023-07-20T22:46:21;2.30;;;2.10;;
12846;SDS011;6492;48.128;8.320;2023-07-20T22:50:22;2.40;;;2.20;;
12846;SDS011;6492;48.128;8.320;2023-07-20T22:54:24;2.07;;;1.83;;
12846;SDS011;6492;48.128;8.320;2023-07-20T22:58:28;2.43;;;1.80;;
12846;SDS011;6492;48.128;8.320;2023-07-20T23:02:30;2.50;;;2.07;;
12846;SDS011;6492;48.128;8.320;2023-07-20T23:06:35;2.40;;;2.20;;
12846;SDS011;6492;48.128;8.320;2023-07-20T23:10:37;2.20;;;1.83;;
12846;SDS011;6492;48.128;8.320;2023-07-20T23:14:40;5.40;;;2.40;;
12846;SDS011;6492;48.128;8.320;2023-07-20T23:18:42;3.10;;;1.90;;
12846;SDS011;6492;48.128;8.320;2023-07-20T23:22:46;3.17;;;2.80;;
12846;SDS011;6492;48.128;8.320;2023-07-20T23:26:49;3.13;;;2.13;;
12846;SDS011;6492;48.128;8.320;2023-07-20T23:30:54;2.33;;;1.87;;
12846;SDS011;6492;48.128;8.320;2023-07-20T23:34:56;2.13;;;1.90;;
12846;SDS011;6492;48.128;8.320;2023-07-20T23:38:58;2.27;;;2.00;;
12846;SDS011;6492;48.128;8.320;2023-07-20T23:43:00;1.80;;;1.63;;
12846;SDS011;6492;48.128;8.320;2023-07-20T23:47:03;2.17;;;1.97;;
12846;SDS011;6492;48.128;8.320;2023-07-20T23:51:13;2.20;;;2.00;;
12846;SDS011;6492;48.128;8.320;2023-07-20T23:55:18;2.00;;;1.90;;
12846;SDS011;6492;48.128;8.320;2023-07-20T23:59:20;3.43;;;2.30;;
